sensor_id;sensor_type;location;lat;lon;timestamp;temperature;humidity
18173;DHT22;9211;48.818;9.312;2023-02-11T00:01:54;-1.70;99.90
18173;DHT22;9211;48.818;9.312;2023-02-11T00:04:21;-1.80;99.90
18173;DHT22;9211;48.818;9.312;2023-02-11T00:06:48;-1.70;99.90
18173;DHT22;9211;48.818;9.312;2023-02-11T00:09:16;-1.70;99.90
18173;DHT22;9211;48.818;9.312;2023-02-11T00:11:44;-1.70;99.90
18173;DHT22;9211;48.818;9.312;2023-02-11T00:14:10;-1.70;99.90
18173;DHT22;9211;48.818;9.312;2023-02-11T00:16:37;-1.70;99.90
18173;DHT22;9211;48.818;9.312;2023-02-11T00:19:05;-1.70;99.90
18173;DHT22;9211;48.818;9.312;2023-02-11T00:21:32;-1.80;99.90
18173;DHT22;9211;48.818;9.312;2023-02-11T00:23:59;-1.90;99.90
18173;DHT22;9211;48.818;9.312;2023-02-11T00:26:30;-1.90;99.90
18173;DHT22;9211;48.818;9.312;2023-02-11T00:28:57;-1.90;99.90
18173;DHT22;9211;48.818;9.312;2023-02-11T00:31:25;-1.80;99.90
18173;DHT22;9211;48.818;9.312;2023-02-11T00:33:53;-1.80;99.90
18173;DHT22;9211;48.818;9.312;2023-02-11T00:36:21;-1.90;99.90
18173;DHT22;9211;48.818;9.312;2023-02-11T00:38:49;-2.00;99.90
18173;DHT22;9211;48.818;9.312;2023-02-11T00:41:17;-2.00;99.90
18173;DHT22;9211;48.818;9.312;2023-02-11T00:43:46;-2.10;99.90
18173;DHT22;9211;48.818;9.312;2023-02-11T00:46:14;-2.00;99.90
18173;DHT22;9211;48.818;9.312;2023-02-11T00:48:41;-1.90;99.90
18173;DHT22;9211;48.818;9.312;2023-02-11T00:51:08;-1.90;99.90
18173;DHT22;9211;48.818;9.312;2023-02-11T00:53:36;-1.90;99.90
18173;DHT22;9211;48.818;9.312;2023-02-11T00:56:03;-1.90;99.90
18173;DHT22;9211;48.818;9.312;2023-02-11T00:58:30;-1.80;99.90
18173;DHT22;9211;48.818;9.312;2023-02-11T01:00:59;-1.90;99.90
18173;DHT22;9211;48.818;9.312;2023-02-11T01:03:26;-2.00;99.90
18173;DHT22;9211;48.818;9.312;2023-02-11T01:05:54;-2.00;99.90
18173;DHT22;9211;48.818;9.312;2023-02-11T01:08:21;-2.10;99.90
18173;DHT22;9211;48.818;9.312;2023-02-11T01:10:54;-2.10;99.90
18173;DHT22;9211;48.818;9.312;2023-02-11T01:13:21;-2.10;99.90
18173;DHT22;9211;48.818;9.312;2023-02-11T01:15:48;-2.10;99.90
18173;DHT22;9211;48.818;9.312;2023-02-11T01:18:18;-2.10;99.90
18173;DHT22;9211;48.818;9.312;2023-02-11T01:20:46;-2.10;99.90
18173;DHT22;9211;48.818;9.312;2023-02-11T01:23:13;-2.10;99.90
18173;DHT22;9211;48.818;9.312;2023-02-11T01:25:43;-2.10;99.90
18173;DHT22;9211;48.818;9.312;2023-02-11T01:28:15;-2.10;99.90
18173;DHT22;9211;48.818;9.312;2023-02-11T01:30:42;-2.10;99.90
18173;DHT22;9211;48.818;9.312;2023-02-11T01:33:09;-2.00;99.90
18173;DHT22;9211;48.818;9.312;2023-02-11T01:35:38;-2.00;99.90
18173;DHT22;9211;48.818;9.312;2023-02-11T01:38:06;-2.00;99.90
18173;DHT22;9211;48.818;9.312;2023-02-11T01:40:33;-2.10;99.90
18173;DHT22;9211;48.818;9.312;2023-02-11T01:43:01;-2.20;99.90
18173;DHT22;9211;48.818;9.312;2023-02-11T01:45:55;-2.30;99.90
18173;DHT22;9211;48.818;9.312;2023-02-11T01:48:26;-2.30;99.90
18173;DHT22;9211;48.818;9.312;2023-02-11T01:50:58;-2.30;99.90
18173;DHT22;9211;48.818;9.312;2023-02-11T01:53:28;-2.40;99.90
18173;DHT22;9211;48.818;9.312;2023-02-11T01:56:29;-2.30;99.90
18173;DHT22;9211;48.818;9.312;2023-02-11T01:59:17;-2.20;99.90
18173;DHT22;9211;48.818;9.312;2023-02-11T02:01:49;-2.20;99.90
18173;DHT22;9211;48.818;9.312;2023-02-11T02:04:18;-2.20;99.90
18173;DHT22;9211;48.818;9.312;2023-02-11T02:06:49;-2.20;99.90
18173;DHT22;9211;48.818;9.312;2023-02-11T02:09:21;-2.20;99.90
18173;DHT22;9211;48.818;9.312;2023-02-11T02:11:49;-2.30;99.90
18173;DHT22;9211;48.818;9.312;2023-02-11T02:14:16;-2.40;99.90
18173;DHT22;9211;48.818;9.312;2023-02-11T02:16:44;-2.30;99.90
18173;DHT22;9211;48.818;9.312;2023-02-11T02:19:49;-2.40;99.90
18173;DHT22;9211;48.818;9.312;2023-02-11T02:23:03;-2.30;99.90
18173;DHT22;9211;48.818;9.312;2023-02-11T02:31:41;-2.30;99.90
18173;DHT22;9211;48.818;9.312;2023-02-11T02:34:17;-2.40;99.90
18173;DHT22;9211;48.818;9.312;2023-02-11T02:36:51;-2.40;99.90
18173;DHT22;9211;48.818;9.312;2023-02-11T02:39:24;-2.30;99.90
18173;DHT22;9211;48.818;9.312;2023-02-11T02:41:52;-2.30;99.90
18173;DHT22;9211;48.818;9.312;2023-02-11T02:44:20;-2.30;99.90
18173;DHT22;9211;48.818;9.312;2023-02-11T02:46:47;-2.30;99.90
18173;DHT22;9211;48.818;9.312;2023-02-11T02:49:16;-2.20;99.90
18173;DHT22;9211;48.818;9.312;2023-02-11T02:51:57;-2.20;99.90
18173;DHT22;9211;48.818;9.312;2023-02-11T02:57:37;-2.10;99.90
18173;DHT22;9211;48.818;9.312;2023-02-11T03:02:57;-2.00;99.90
18173;DHT22;9211;48.818;9.312;2023-02-11T03:05:42;-2.00;99.90
18173;DHT22;9211;48.818;9.312;2023-02-11T03:08:16;-1.90;99.90
18173;DHT22;9211;48.818;9.312;2023-02-11T03:10:46;-1.90;99.90
18173;DHT22;9211;48.818;9.312;2023-02-11T03:13:16;-1.90;99.90
18173;DHT22;9211;48.818;9.312;2023-02-11T03:15:48;-1.90;99.90
18173;DHT22;9211;48.818;9.312;2023-02-11T03:18:18;-2.00;99.90
18173;DHT22;9211;48.818;9.312;2023-02-11T03:20:50;-2.10;99.90
18173;DHT22;9211;48.818;9.312;2023-02-11T03:23:22;-2.10;99.90
18173;DHT22;9211;48.818;9.312;2023-02-11T03:25:57;-2.10;99.90
18173;DHT22;9211;48.818;9.312;2023-02-11T03:28:29;-2.10;99.90
18173;DHT22;9211;48.818;9.312;2023-02-11T03:31:10;-2.10;99.90
18173;DHT22;9211;48.818;9.312;2023-02-11T03:33:41;-2.00;99.90
18173;DHT22;9211;48.818;9.312;2023-02-11T03:36:18;-2.00;99.90
18173;DHT22;9211;48.818;9.312;2023-02-11T03:38:49;-1.90;99.90
18173;DHT22;9211;48.818;9.312;2023-02-11T03:41:20;-1.90;99.90
18173;DHT22;9211;48.818;9.312;2023-02-11T03:43:52;-1.90;99.90
18173;DHT22;9211;48.818;9.312;2023-02-11T03:46:23;-2.00;99.90
18173;DHT22;9211;48.818;9.312;2023-02-11T03:48:55;-2.00;99.90
18173;DHT22;9211;48.818;9.312;2023-02-11T03:51:26;-1.90;99.90
18173;DHT22;9211;48.818;9.312;2023-02-11T03:53:57;-1.80;99.90
18173;DHT22;9211;48.818;9.312;2023-02-11T03:56:28;-1.80;99.90
18173;DHT22;9211;48.818;9.312;2023-02-11T03:58:56;-1.80;99.90
18173;DHT22;9211;48.818;9.312;2023-02-11T04:01:23;-1.70;99.90
18173;DHT22;9211;48.818;9.312;2023-02-11T04:03:50;-1.70;99.90
18173;DHT22;9211;48.818;9.312;2023-02-11T04:06:17;-1.60;99.90
18173;DHT22;9211;48.818;9.312;2023-02-11T04:08:45;-1.60;99.90
18173;DHT22;9211;48.818;9.312;2023-02-11T04:11:12;-1.50;99.90
18173;DHT22;9211;48.818;9.312;2023-02-11T04:13:39;-1.50;99.90
18173;DHT22;9211;48.818;9.312;2023-02-11T04:16:06;-1.50;99.90
18173;DHT22;9211;48.818;9.312;2023-02-11T04:18:33;-1.50;99.90
18173;DHT22;9211;48.818;9.312;2023-02-11T04:21:00;-1.50;99.90
18173;DHT22;9211;48.818;9.312;2023-02-11T04:23:27;-1.40;99.90
18173;DHT22;9211;48.818;9.312;2023-02-11T04:25:55;-1.30;99.90
18173;DHT22;9211;48.818;9.312;2023-02-11T04:28:22;-1.30;99.90
18173;DHT22;9211;48.818;9.312;2023-02-11T04:30:51;-1.30;99.90
18173;DHT22;9211;48.818;9.312;2023-02-11T04:33:18;-1.20;99.90
18173;DHT22;9211;48.818;9.312;2023-02-11T04:35:45;-1.20;99.90
18173;DHT22;9211;48.818;9.312;2023-02-11T04:38:12;-1.10;99.90
18173;DHT22;9211;48.818;9.312;2023-02-11T04:40:39;-1.10;99.90
18173;DHT22;9211;48.818;9.312;2023-02-11T04:43:07;-1.10;99.90
18173;DHT22;9211;48.818;9.312;2023-02-11T04:45:34;-1.10;99.90
18173;DHT22;9211;48.818;9.312;2023-02-11T04:48:01;-1.00;99.90
18173;DHT22;9211;48.818;9.312;2023-02-11T04:50:28;-1.00;99.90
18173;DHT22;9211;48.818;9.312;2023-02-11T04:52:55;-1.00;99.90
18173;DHT22;9211;48.818;9.312;2023-02-11T04:55:23;-1.00;99.90
18173;DHT22;9211;48.818;9.312;2023-02-11T04:57:50;-0.90;99.90
18173;DHT22;9211;48.818;9.312;2023-02-11T05:00:18;-0.90;99.90
18173;DHT22;9211;48.818;9.312;2023-02-11T05:02:45;-0.90;99.90
18173;DHT22;9211;48.818;9.312;2023-02-11T05:05:12;-0.80;99.90
18173;DHT22;9211;48.818;9.312;2023-02-11T05:07:39;-0.80;99.90
18173;DHT22;9211;48.818;9.312;2023-02-11T05:10:06;-0.70;99.90
18173;DHT22;9211;48.818;9.312;2023-02-11T05:12:33;-0.70;99.90
18173;DHT22;9211;48.818;9.312;2023-02-11T05:15:00;-0.70;99.90
18173;DHT22;9211;48.818;9.312;2023-02-11T05:17:28;-0.70;99.90
18173;DHT22;9211;48.818;9.312;2023-02-11T05:19:55;-0.70;99.90
18173;DHT22;9211;48.818;9.312;2023-02-11T05:22:22;-0.70;99.90
18173;DHT22;9211;48.818;9.312;2023-02-11T05:24:49;-0.70;99.90
18173;DHT22;9211;48.818;9.312;2023-02-11T05:27:16;-0.70;99.90
18173;DHT22;9211;48.818;9.312;2023-02-11T05:29:43;-0.60;99.90
18173;DHT22;9211;48.818;9.312;2023-02-11T05:32:10;-0.70;99.90
18173;DHT22;9211;48.818;9.312;2023-02-11T05:34:38;-0.70;99.90
18173;DHT22;9211;48.818;9.312;2023-02-11T05:37:05;-0.60;99.90
18173;DHT22;9211;48.818;9.312;2023-02-11T05:39:32;-0.60;99.90
18173;DHT22;9211;48.818;9.312;2023-02-11T05:41:59;-0.60;99.90
18173;DHT22;9211;48.818;9.312;2023-02-11T05:44:26;-0.50;99.90
18173;DHT22;9211;48.818;9.312;2023-02-11T05:46:53;-0.40;99.90
18173;DHT22;9211;48.818;9.312;2023-02-11T05:49:20;-0.40;99.90
18173;DHT22;9211;48.818;9.312;2023-02-11T05:51:48;-0.30;99.90
18173;DHT22;9211;48.818;9.312;2023-02-11T05:54:15;-0.30;99.90
18173;DHT22;9211;48.818;9.312;2023-02-11T05:56:42;-0.30;99.90
18173;DHT22;9211;48.818;9.312;2023-02-11T05:59:12;-0.30;99.90
18173;DHT22;9211;48.818;9.312;2023-02-11T06:01:39;-0.20;99.90
18173;DHT22;9211;48.818;9.312;2023-02-11T06:04:06;-0.20;99.90
18173;DHT22;9211;48.818;9.312;2023-02-11T06:06:33;-0.10;99.90
18173;DHT22;9211;48.818;9.312;2023-02-11T06:09:02;0.00;99.90
18173;DHT22;9211;48.818;9.312;2023-02-11T06:11:29;0.00;99.90
18173;DHT22;9211;48.818;9.312;2023-02-11T06:13:55;0.10;99.90
18173;DHT22;9211;48.818;9.312;2023-02-11T06:16:22;0.10;99.90
18173;DHT22;9211;48.818;9.312;2023-02-11T06:18:49;0.20;99.90
18173;DHT22;9211;48.818;9.312;2023-02-11T06:21:16;0.20;99.90
18173;DHT22;9211;48.818;9.312;2023-02-11T06:23:43;0.20;99.90
18173;DHT22;9211;48.818;9.312;2023-02-11T06:26:16;0.10;99.90
18173;DHT22;9211;48.818;9.312;2023-02-11T06:28:43;0.10;99.90
18173;DHT22;9211;48.818;9.312;2023-02-11T06:31:10;0.10;99.90
18173;DHT22;9211;48.818;9.312;2023-02-11T06:33:38;0.00;99.90
18173;DHT22;9211;48.818;9.312;2023-02-11T06:36:12;-0.10;99.90
18173;DHT22;9211;48.818;9.312;2023-02-11T06:38:39;0.00;99.90
18173;DHT22;9211;48.818;9.312;2023-02-11T06:41:08;0.00;99.90
18173;DHT22;9211;48.818;9.312;2023-02-11T06:43:37;0.10;99.90
18173;DHT22;9211;48.818;9.312;2023-02-11T06:46:04;0.10;99.90
18173;DHT22;9211;48.818;9.312;2023-02-11T06:48:32;0.00;99.90
18173;DHT22;9211;48.818;9.312;2023-02-11T06:51:00;0.10;99.90
18173;DHT22;9211;48.818;9.312;2023-02-11T06:53:28;0.10;99.90
18173;DHT22;9211;48.818;9.312;2023-02-11T06:55:55;0.10;99.90
18173;DHT22;9211;48.818;9.312;2023-02-11T06:58:22;0.10;99.90
18173;DHT22;9211;48.818;9.312;2023-02-11T07:00:50;0.20;99.90
18173;DHT22;9211;48.818;9.312;2023-02-11T07:03:18;0.20;99.90
18173;DHT22;9211;48.818;9.312;2023-02-11T07:05:45;0.20;99.90
18173;DHT22;9211;48.818;9.312;2023-02-11T07:08:12;0.20;99.90
18173;DHT22;9211;48.818;9.312;2023-02-11T07:10:39;0.20;99.90
18173;DHT22;9211;48.818;9.312;2023-02-11T07:13:06;0.20;99.90
18173;DHT22;9211;48.818;9.312;2023-02-11T07:15:33;0.20;99.90
18173;DHT22;9211;48.818;9.312;2023-02-11T07:18:01;0.20;99.90
18173;DHT22;9211;48.818;9.312;2023-02-11T07:20:28;0.30;99.90
18173;DHT22;9211;48.818;9.312;2023-02-11T07:22:55;0.40;99.90
18173;DHT22;9211;48.818;9.312;2023-02-11T07:25:23;0.40;99.90
18173;DHT22;9211;48.818;9.312;2023-02-11T07:27:50;0.40;99.90
18173;DHT22;9211;48.818;9.312;2023-02-11T07:30:17;0.50;99.90
18173;DHT22;9211;48.818;9.312;2023-02-11T07:32:44;0.50;99.90
18173;DHT22;9211;48.818;9.312;2023-02-11T07:35:12;0.50;99.90
18173;DHT22;9211;48.818;9.312;2023-02-11T07:37:39;0.60;99.90
18173;DHT22;9211;48.818;9.312;2023-02-11T07:40:07;0.60;99.90
18173;DHT22;9211;48.818;9.312;2023-02-11T07:42:34;0.70;99.90
18173;DHT22;9211;48.818;9.312;2023-02-11T07:45:01;0.70;99.90
18173;DHT22;9211;48.818;9.312;2023-02-11T07:47:28;0.80;99.90
18173;DHT22;9211;48.818;9.312;2023-02-11T07:49:55;0.80;99.90
18173;DHT22;9211;48.818;9.312;2023-02-11T07:52:24;0.80;99.90
18173;DHT22;9211;48.818;9.312;2023-02-11T07:54:51;0.90;99.90
18173;DHT22;9211;48.818;9.312;2023-02-11T07:57:18;1.00;99.90
18173;DHT22;9211;48.818;9.312;2023-02-11T07:59:44;1.00;99.90
18173;DHT22;9211;48.818;9.312;2023-02-11T08:02:11;1.00;99.90
18173;DHT22;9211;48.818;9.312;2023-02-11T08:04:39;1.20;99.90
18173;DHT22;9211;48.818;9.312;2023-02-11T08:07:05;1.20;99.90
18173;DHT22;9211;48.818;9.312;2023-02-11T08:09:34;1.30;99.90
18173;DHT22;9211;48.818;9.312;2023-02-11T08:12:01;1.30;99.90
18173;DHT22;9211;48.818;9.312;2023-02-11T08:14:28;1.40;99.90
18173;DHT22;9211;48.818;9.312;2023-02-11T08:16:57;1.50;99.90
18173;DHT22;9211;48.818;9.312;2023-02-11T08:19:24;1.60;99.90
18173;DHT22;9211;48.818;9.312;2023-02-11T08:21:54;1.70;99.90
18173;DHT22;9211;48.818;9.312;2023-02-11T08:24:21;1.70;99.90
18173;DHT22;9211;48.818;9.312;2023-02-11T08:26:50;1.80;99.90
18173;DHT22;9211;48.818;9.312;2023-02-11T08:29:17;1.90;99.90
18173;DHT22;9211;48.818;9.312;2023-02-11T08:31:45;2.00;99.90
18173;DHT22;9211;48.818;9.312;2023-02-11T08:34:13;2.00;99.90
18173;DHT22;9211;48.818;9.312;2023-02-11T08:36:42;2.10;99.90
18173;DHT22;9211;48.818;9.312;2023-02-11T08:39:12;2.10;99.90
18173;DHT22;9211;48.818;9.312;2023-02-11T08:41:39;2.10;99.90
18173;DHT22;9211;48.818;9.312;2023-02-11T08:44:08;2.10;99.90
18173;DHT22;9211;48.818;9.312;2023-02-11T08:46:35;2.10;99.90
18173;DHT22;9211;48.818;9.312;2023-02-11T08:49:03;2.10;99.90
18173;DHT22;9211;48.818;9.312;2023-02-11T08:51:30;2.10;99.90
18173;DHT22;9211;48.818;9.312;2023-02-11T08:53:58;2.20;99.90
18173;DHT22;9211;48.818;9.312;2023-02-11T08:56:26;2.20;99.90
18173;DHT22;9211;48.818;9.312;2023-02-11T08:58:55;2.30;99.90
18173;DHT22;9211;48.818;9.312;2023-02-11T09:01:25;2.40;99.90
18173;DHT22;9211;48.818;9.312;2023-02-11T09:03:53;2.40;99.90
18173;DHT22;9211;48.818;9.312;2023-02-11T09:06:21;2.50;99.90
18173;DHT22;9211;48.818;9.312;2023-02-11T09:08:50;2.50;99.90
18173;DHT22;9211;48.818;9.312;2023-02-11T09:11:20;2.50;99.90
18173;DHT22;9211;48.818;9.312;2023-02-11T09:13:47;2.60;99.90
18173;DHT22;9211;48.818;9.312;2023-02-11T09:16:19;2.70;99.90
18173;DHT22;9211;48.818;9.312;2023-02-11T09:18:47;2.70;99.90
18173;DHT22;9211;48.818;9.312;2023-02-11T09:21:16;2.70;99.90
18173;DHT22;9211;48.818;9.312;2023-02-11T09:23:44;2.70;99.90
18173;DHT22;9211;48.818;9.312;2023-02-11T09:26:15;2.80;99.90
18173;DHT22;9211;48.818;9.312;2023-02-11T09:28:42;2.80;99.90
18173;DHT22;9211;48.818;9.312;2023-02-11T09:31:16;2.80;99.90
18173;DHT22;9211;48.818;9.312;2023-02-11T09:33:44;2.90;99.90
18173;DHT22;9211;48.818;9.312;2023-02-11T09:36:16;2.90;99.90
18173;DHT22;9211;48.818;9.312;2023-02-11T09:38:44;2.90;99.90
18173;DHT22;9211;48.818;9.312;2023-02-11T09:41:28;2.90;99.90
18173;DHT22;9211;48.818;9.312;2023-02-11T09:43:59;3.00;99.90
18173;DHT22;9211;48.818;9.312;2023-02-11T09:46:31;3.10;99.90
18173;DHT22;9211;48.818;9.312;2023-02-11T09:49:01;3.20;99.90
18173;DHT22;9211;48.818;9.312;2023-02-11T09:51:38;3.30;99.90
18173;DHT22;9211;48.818;9.312;2023-02-11T09:54:14;3.40;99.90
18173;DHT22;9211;48.818;9.312;2023-02-11T09:56:44;3.50;99.90
18173;DHT22;9211;48.818;9.312;2023-02-11T09:59:13;3.60;99.90
18173;DHT22;9211;48.818;9.312;2023-02-11T10:01:44;3.70;99.90
18173;DHT22;9211;48.818;9.312;2023-02-11T10:04:17;3.80;99.90
18173;DHT22;9211;48.818;9.312;2023-02-11T10:06:51;3.90;99.90
18173;DHT22;9211;48.818;9.312;2023-02-11T10:09:46;3.80;99.90
18173;DHT22;9211;48.818;9.312;2023-02-11T10:12:30;3.90;99.90
18173;DHT22;9211;48.818;9.312;2023-02-11T10:15:08;3.90;99.90
18173;DHT22;9211;48.818;9.312;2023-02-11T10:17:45;3.90;99.90
18173;DHT22;9211;48.818;9.312;2023-02-11T10:20:22;3.90;99.90
18173;DHT22;9211;48.818;9.312;2023-02-11T10:22:54;3.90;99.90
18173;DHT22;9211;48.818;9.312;2023-02-11T10:25:23;3.90;99.90
18173;DHT22;9211;48.818;9.312;2023-02-11T10:27:53;4.00;99.90
18173;DHT22;9211;48.818;9.312;2023-02-11T10:30:26;4.10;99.90
18173;DHT22;9211;48.818;9.312;2023-02-11T10:32:58;4.30;99.90
18173;DHT22;9211;48.818;9.312;2023-02-11T10:35:26;4.40;99.90
18173;DHT22;9211;48.818;9.312;2023-02-11T10:37:55;4.50;99.90
18173;DHT22;9211;48.818;9.312;2023-02-11T10:40:24;4.50;99.90
18173;DHT22;9211;48.818;9.312;2023-02-11T10:42:53;4.60;99.90
18173;DHT22;9211;48.818;9.312;2023-02-11T10:45:26;4.70;99.90
18173;DHT22;9211;48.818;9.312;2023-02-11T10:47:54;4.80;99.90
18173;DHT22;9211;48.818;9.312;2023-02-11T10:50:26;4.80;99.90
18173;DHT22;9211;48.818;9.312;2023-02-11T10:53:11;4.80;99.90
18173;DHT22;9211;48.818;9.312;2023-02-11T10:55:48;4.90;99.90
18173;DHT22;9211;48.818;9.312;2023-02-11T10:58:23;4.90;99.90
18173;DHT22;9211;48.818;9.312;2023-02-11T11:00:52;5.00;99.90
18173;DHT22;9211;48.818;9.312;2023-02-11T11:03:22;5.10;99.90
18173;DHT22;9211;48.818;9.312;2023-02-11T11:05:51;5.10;99.90
18173;DHT22;9211;48.818;9.312;2023-02-11T11:08:20;5.10;99.90
18173;DHT22;9211;48.818;9.312;2023-02-11T11:10:49;5.20;99.90
18173;DHT22;9211;48.818;9.312;2023-02-11T11:13:30;5.30;99.90
18173;DHT22;9211;48.818;9.312;2023-02-11T11:16:19;5.30;99.90
18173;DHT22;9211;48.818;9.312;2023-02-11T11:18:48;5.40;99.90
18173;DHT22;9211;48.818;9.312;2023-02-11T11:21:18;5.60;99.90
18173;DHT22;9211;48.818;9.312;2023-02-11T11:23:53;5.70;99.90
18173;DHT22;9211;48.818;9.312;2023-02-11T11:26:21;5.70;99.90
18173;DHT22;9211;48.818;9.312;2023-02-11T11:28:55;5.80;99.90
18173;DHT22;9211;48.818;9.312;2023-02-11T11:31:27;5.90;99.90
18173;DHT22;9211;48.818;9.312;2023-02-11T11:33:57;6.00;99.90
18173;DHT22;9211;48.818;9.312;2023-02-11T11:36:32;6.10;99.90
18173;DHT22;9211;48.818;9.312;2023-02-11T11:39:15;6.20;99.90
18173;DHT22;9211;48.818;9.312;2023-02-11T11:41:50;6.30;99.90
18173;DHT22;9211;48.818;9.312;2023-02-11T11:44:23;6.40;99.90
18173;DHT22;9211;48.818;9.312;2023-02-11T11:47:06;6.60;99.90
18173;DHT22;9211;48.818;9.312;2023-02-11T11:49:36;6.70;99.90
18173;DHT22;9211;48.818;9.312;2023-02-11T11:52:19;6.80;99.90
18173;DHT22;9211;48.818;9.312;2023-02-11T11:54:58;6.80;99.90
18173;DHT22;9211;48.818;9.312;2023-02-11T11:57:27;7.00;99.90
18173;DHT22;9211;48.818;9.312;2023-02-11T11:59:57;7.20;99.90
18173;DHT22;9211;48.818;9.312;2023-02-11T12:05:34;7.30;99.90
18173;DHT22;9211;48.818;9.312;2023-02-11T12:08:11;7.40;99.90
18173;DHT22;9211;48.818;9.312;2023-02-11T12:10:53;7.50;99.90
18173;DHT22;9211;48.818;9.312;2023-02-11T12:13:51;7.50;99.90
18173;DHT22;9211;48.818;9.312;2023-02-11T12:16:29;7.50;99.90
18173;DHT22;9211;48.818;9.312;2023-02-11T12:22:18;7.60;99.90
18173;DHT22;9211;48.818;9.312;2023-02-11T12:24:55;7.60;99.90
18173;DHT22;9211;48.818;9.312;2023-02-11T12:27:39;7.60;99.90
18173;DHT22;9211;48.818;9.312;2023-02-11T12:30:21;7.60;99.90
18173;DHT22;9211;48.818;9.312;2023-02-11T12:33:05;7.70;99.90
18173;DHT22;9211;48.818;9.312;2023-02-11T12:35:41;7.70;99.90
18173;DHT22;9211;48.818;9.312;2023-02-11T12:38:31;7.70;99.90
18173;DHT22;9211;48.818;9.312;2023-02-11T12:41:11;7.80;99.90
18173;DHT22;9211;48.818;9.312;2023-02-11T12:43:43;7.90;99.90
18173;DHT22;9211;48.818;9.312;2023-02-11T12:46:33;8.00;99.90
18173;DHT22;9211;48.818;9.312;2023-02-11T12:49:27;8.00;99.90
18173;DHT22;9211;48.818;9.312;2023-02-11T12:52:07;8.00;99.90
18173;DHT22;9211;48.818;9.312;2023-02-11T12:54:40;8.00;99.90
18173;DHT22;9211;48.818;9.312;2023-02-11T12:57:14;8.10;99.90
18173;DHT22;9211;48.818;9.312;2023-02-11T12:59:48;8.00;99.90
18173;DHT22;9211;48.818;9.312;2023-02-11T13:02:25;7.90;99.90
18173;DHT22;9211;48.818;9.312;2023-02-11T13:04:58;7.90;99.90
18173;DHT22;9211;48.818;9.312;2023-02-11T13:07:28;7.90;99.90
18173;DHT22;9211;48.818;9.312;2023-02-11T13:09:59;7.80;99.90
18173;DHT22;9211;48.818;9.312;2023-02-11T13:12:29;7.80;99.90
18173;DHT22;9211;48.818;9.312;2023-02-11T13:15:16;7.80;99.90
18173;DHT22;9211;48.818;9.312;2023-02-11T13:17:51;7.80;99.90
18173;DHT22;9211;48.818;9.312;2023-02-11T13:20:34;7.80;99.90
18173;DHT22;9211;48.818;9.312;2023-02-11T13:23:08;7.90;99.90
18173;DHT22;9211;48.818;9.312;2023-02-11T13:25:41;7.80;99.90
18173;DHT22;9211;48.818;9.312;2023-02-11T13:28:20;7.80;99.90
18173;DHT22;9211;48.818;9.312;2023-02-11T13:30:49;7.80;99.90
18173;DHT22;9211;48.818;9.312;2023-02-11T13:33:31;7.80;99.90
18173;DHT22;9211;48.818;9.312;2023-02-11T13:36:18;7.80;99.90
18173;DHT22;9211;48.818;9.312;2023-02-11T13:38:57;7.80;99.90
18173;DHT22;9211;48.818;9.312;2023-02-11T13:41:31;8.00;99.90
18173;DHT22;9211;48.818;9.312;2023-02-11T13:44:01;7.80;99.90
18173;DHT22;9211;48.818;9.312;2023-02-11T13:46:47;7.80;99.90
18173;DHT22;9211;48.818;9.312;2023-02-11T13:49:21;7.80;99.90
18173;DHT22;9211;48.818;9.312;2023-02-11T13:51:50;7.80;99.90
18173;DHT22;9211;48.818;9.312;2023-02-11T13:54:22;7.80;99.90
18173;DHT22;9211;48.818;9.312;2023-02-11T13:57:26;7.90;99.90
18173;DHT22;9211;48.818;9.312;2023-02-11T13:59:56;8.00;99.90
18173;DHT22;9211;48.818;9.312;2023-02-11T14:02:30;8.10;99.90
18173;DHT22;9211;48.818;9.312;2023-02-11T14:05:26;8.00;99.90
18173;DHT22;9211;48.818;9.312;2023-02-11T14:08:23;8.10;99.90
18173;DHT22;9211;48.818;9.312;2023-02-11T14:14:12;8.10;99.90
18173;DHT22;9211;48.818;9.312;2023-02-11T14:19:38;8.30;99.90
18173;DHT22;9211;48.818;9.312;2023-02-11T14:22:13;8.30;99.90
18173;DHT22;9211;48.818;9.312;2023-02-11T14:24:54;8.50;99.90
18173;DHT22;9211;48.818;9.312;2023-02-11T14:27:28;8.50;99.90
18173;DHT22;9211;48.818;9.312;2023-02-11T14:33:19;8.60;99.90
18173;DHT22;9211;48.818;9.312;2023-02-11T14:35:57;8.70;99.90
18173;DHT22;9211;48.818;9.312;2023-02-11T14:38:33;8.80;99.90
18173;DHT22;9211;48.818;9.312;2023-02-11T14:41:15;8.80;99.90
18173;DHT22;9211;48.818;9.312;2023-02-11T14:43:45;8.90;99.90
18173;DHT22;9211;48.818;9.312;2023-02-11T14:46:14;9.00;99.90
18173;DHT22;9211;48.818;9.312;2023-02-11T14:48:44;9.10;99.90
18173;DHT22;9211;48.818;9.312;2023-02-11T14:51:14;9.10;99.90
18173;DHT22;9211;48.818;9.312;2023-02-11T14:53:44;9.30;99.90
18173;DHT22;9211;48.818;9.312;2023-02-11T14:56:19;9.30;99.90
18173;DHT22;9211;48.818;9.312;2023-02-11T14:58:47;9.30;99.90
18173;DHT22;9211;48.818;9.312;2023-02-11T15:01:26;9.20;99.90
18173;DHT22;9211;48.818;9.312;2023-02-11T15:03:54;9.10;99.90
18173;DHT22;9211;48.818;9.312;2023-02-11T15:06:28;9.00;99.90
18173;DHT22;9211;48.818;9.312;2023-02-11T15:08:58;9.00;99.90
18173;DHT22;9211;48.818;9.312;2023-02-11T15:11:30;9.00;99.90
18173;DHT22;9211;48.818;9.312;2023-02-11T15:14:00;9.00;99.90
18173;DHT22;9211;48.818;9.312;2023-02-11T15:16:32;9.00;99.90
18173;DHT22;9211;48.818;9.312;2023-02-11T15:19:02;8.90;99.90
18173;DHT22;9211;48.818;9.312;2023-02-11T15:21:32;8.80;99.90
18173;DHT22;9211;48.818;9.312;2023-02-11T15:24:01;8.70;99.90
18173;DHT22;9211;48.818;9.312;2023-02-11T15:26:32;8.70;99.90
18173;DHT22;9211;48.818;9.312;2023-02-11T15:28:59;8.60;99.90
18173;DHT22;9211;48.818;9.312;2023-02-11T15:31:26;8.70;99.90
18173;DHT22;9211;48.818;9.312;2023-02-11T15:33:54;8.70;99.90
18173;DHT22;9211;48.818;9.312;2023-02-11T15:36:23;8.70;99.90
18173;DHT22;9211;48.818;9.312;2023-02-11T15:39:15;8.60;99.90
18173;DHT22;9211;48.818;9.312;2023-02-11T15:41:44;8.70;99.90
18173;DHT22;9211;48.818;9.312;2023-02-11T15:44:26;8.60;99.90
18173;DHT22;9211;48.818;9.312;2023-02-11T15:46:53;8.70;99.90
18173;DHT22;9211;48.818;9.312;2023-02-11T15:49:20;8.60;99.90
18173;DHT22;9211;48.818;9.312;2023-02-11T15:51:48;8.70;99.90
18173;DHT22;9211;48.818;9.312;2023-02-11T15:54:17;8.50;99.90
18173;DHT22;9211;48.818;9.312;2023-02-11T15:56:48;8.40;99.90
18173;DHT22;9211;48.818;9.312;2023-02-11T15:59:17;8.20;99.90
18173;DHT22;9211;48.818;9.312;2023-02-11T16:01:46;8.20;99.90
18173;DHT22;9211;48.818;9.312;2023-02-11T16:04:18;8.10;99.90
18173;DHT22;9211;48.818;9.312;2023-02-11T16:06:45;8.10;99.90
18173;DHT22;9211;48.818;9.312;2023-02-11T16:09:23;8.00;99.90
18173;DHT22;9211;48.818;9.312;2023-02-11T16:11:56;8.00;99.90
18173;DHT22;9211;48.818;9.312;2023-02-11T16:14:29;7.90;99.90
18173;DHT22;9211;48.818;9.312;2023-02-11T16:16:59;7.80;99.90
18173;DHT22;9211;48.818;9.312;2023-02-11T16:19:27;7.80;99.90
18173;DHT22;9211;48.818;9.312;2023-02-11T16:21:56;7.70;99.90
18173;DHT22;9211;48.818;9.312;2023-02-11T16:24:26;7.70;99.90
18173;DHT22;9211;48.818;9.312;2023-02-11T16:26:56;7.70;99.90
18173;DHT22;9211;48.818;9.312;2023-02-11T16:29:26;7.70;99.90
18173;DHT22;9211;48.818;9.312;2023-02-11T16:32:03;7.60;99.90
18173;DHT22;9211;48.818;9.312;2023-02-11T16:34:30;7.60;99.90
18173;DHT22;9211;48.818;9.312;2023-02-11T16:37:01;7.50;99.90
18173;DHT22;9211;48.818;9.312;2023-02-11T16:39:29;7.50;99.90
18173;DHT22;9211;48.818;9.312;2023-02-11T16:41:57;7.50;99.90
18173;DHT22;9211;48.818;9.312;2023-02-11T16:44:24;7.50;99.90
18173;DHT22;9211;48.818;9.312;2023-02-11T16:46:51;7.40;99.90
18173;DHT22;9211;48.818;9.312;2023-02-11T16:49:20;7.40;99.90